sensor_id;sensor_type;location;lat;lon;timestamp;P1;durP1;ratioP1;P2;durP2;ratioP2
35646;SDS011;28680;45.642;13.756;2023-03-01T00:01:15;21.50;;;11.80;;
35646;SDS011;28680;45.642;13.756;2023-03-01T00:03:47;17.75;;;11.13;;
35646;SDS011;28680;45.642;13.756;2023-03-01T00:06:13;20.88;;;11.43;;
35646;SDS011;28680;45.642;13.756;2023-03-01T00:08:40;19.85;;;11.25;;
35646;SDS011;28680;45.642;13.756;2023-03-01T00:13:33;19.60;;;12.40;;
35646;SDS011;28680;45.642;13.756;2023-03-01T00:16:07;16.98;;;9.80;;
35646;SDS011;28680;45.642;13.756;2023-03-01T00:18:36;19.08;;;11.52;;
35646;SDS011;28680;45.642;13.756;2023-03-01T00:21:02;19.83;;;10.68;;
35646;SDS011;28680;45.642;13.756;2023-03-01T00:23:28;17.90;;;10.65;;
35646;SDS011;28680;45.642;13.756;2023-03-01T00:25:54;16.00;;;9.68;;
35646;SDS011;28680;45.642;13.756;2023-03-01T00:28:20;12.93;;;8.48;;
35646;SDS011;28680;45.642;13.756;2023-03-01T00:30:46;17.77;;;10.85;;
35646;SDS011;28680;45.642;13.756;2023-03-01T00:33:12;19.67;;;10.98;;
35646;SDS011;28680;45.642;13.756;2023-03-01T00:35:38;17.40;;;10.52;;
35646;SDS011;28680;45.642;13.756;2023-03-01T00:40:40;17.00;;;10.02;;
35646;SDS011;28680;45.642;13.756;2023-03-01T00:43:05;20.15;;;11.88;;
35646;SDS011;28680;45.642;13.756;2023-03-01T00:45:32;17.60;;;10.27;;
35646;SDS011;28680;45.642;13.756;2023-03-01T00:47:58;18.20;;;11.05;;
35646;SDS011;28680;45.642;13.756;2023-03-01T00:50:24;18.42;;;11.38;;
35646;SDS011;28680;45.642;13.756;2023-03-01T00:52:53;20.17;;;10.90;;
35646;SDS011;28680;45.642;13.756;2023-03-01T00:55:20;16.73;;;8.57;;
35646;SDS011;28680;45.642;13.756;2023-03-01T00:57:46;17.90;;;9.30;;
35646;SDS011;28680;45.642;13.756;2023-03-01T01:00:12;14.77;;;8.85;;
35646;SDS011;28680;45.642;13.756;2023-03-01T01:02:38;14.18;;;8.68;;
35646;SDS011;28680;45.642;13.756;2023-03-01T01:05:05;26.15;;;11.38;;
35646;SDS011;28680;45.642;13.756;2023-03-01T01:07:31;17.25;;;10.30;;
35646;SDS011;28680;45.642;13.756;2023-03-01T01:09:58;16.17;;;10.23;;
35646;SDS011;28680;45.642;13.756;2023-03-01T01:12:23;17.40;;;10.65;;
35646;SDS011;28680;45.642;13.756;2023-03-01T01:14:49;20.88;;;10.60;;
35646;SDS011;28680;45.642;13.756;2023-03-01T01:17:15;15.63;;;9.52;;
35646;SDS011;28680;45.642;13.756;2023-03-01T01:19:41;19.15;;;10.90;;
35646;SDS011;28680;45.642;13.756;2023-03-01T01:22:07;14.15;;;9.20;;
35646;SDS011;28680;45.642;13.756;2023-03-01T01:24:32;21.60;;;11.25;;
35646;SDS011;28680;45.642;13.756;2023-03-01T01:26:58;15.73;;;9.85;;
35646;SDS011;28680;45.642;13.756;2023-03-01T01:29:24;18.65;;;10.68;;
35646;SDS011;28680;45.642;13.756;2023-03-01T01:31:50;18.50;;;10.27;;
35646;SDS011;28680;45.642;13.756;2023-03-01T01:34:16;17.65;;;9.95;;
35646;SDS011;28680;45.642;13.756;2023-03-01T01:36:49;18.05;;;10.80;;
35646;SDS011;28680;45.642;13.756;2023-03-01T01:39:18;17.40;;;10.40;;
35646;SDS011;28680;45.642;13.756;2023-03-01T01:41:44;17.10;;;9.13;;
35646;SDS011;28680;45.642;13.756;2023-03-01T01:44:12;19.77;;;10.98;;
35646;SDS011;28680;45.642;13.756;2023-03-01T01:46:58;16.08;;;9.35;;
35646;SDS011;28680;45.642;13.756;2023-03-01T01:49:36;16.58;;;9.75;;
35646;SDS011;28680;45.642;13.756;2023-03-01T01:52:27;14.77;;;8.50;;
35646;SDS011;28680;45.642;13.756;2023-03-01T01:55:08;15.57;;;8.68;;
35646;SDS011;28680;45.642;13.756;2023-03-01T01:57:42;18.92;;;10.95;;
35646;SDS011;28680;45.642;13.756;2023-03-01T02:00:15;13.95;;;8.90;;
35646;SDS011;28680;45.642;13.756;2023-03-01T02:03:05;19.92;;;10.68;;
35646;SDS011;28680;45.642;13.756;2023-03-01T02:05:43;18.10;;;10.00;;
35646;SDS011;28680;45.642;13.756;2023-03-01T02:08:29;18.48;;;10.25;;
35646;SDS011;28680;45.642;13.756;2023-03-01T02:11:00;18.88;;;10.48;;
35646;SDS011;28680;45.642;13.756;2023-03-01T02:13:29;19.55;;;10.57;;
35646;SDS011;28680;45.642;13.756;2023-03-01T02:16:02;20.13;;;11.10;;
35646;SDS011;28680;45.642;13.756;2023-03-01T02:18:34;19.48;;;10.25;;
35646;SDS011;28680;45.642;13.756;2023-03-01T02:24:04;20.27;;;11.45;;
35646;SDS011;28680;45.642;13.756;2023-03-01T02:27:11;17.80;;;10.32;;
35646;SDS011;28680;45.642;13.756;2023-03-01T02:29:37;14.20;;;7.97;;
35646;SDS011;28680;45.642;13.756;2023-03-01T02:32:03;14.48;;;8.70;;
35646;SDS011;28680;45.642;13.756;2023-03-01T02:34:30;18.73;;;11.13;;
35646;SDS011;28680;45.642;13.756;2023-03-01T02:37:01;20.00;;;11.35;;
35646;SDS011;28680;45.642;13.756;2023-03-01T02:39:37;17.63;;;9.73;;
35646;SDS011;28680;45.642;13.756;2023-03-01T02:42:09;15.75;;;9.27;;
35646;SDS011;28680;45.642;13.756;2023-03-01T02:44:39;17.05;;;9.75;;
35646;SDS011;28680;45.642;13.756;2023-03-01T02:47:05;17.10;;;9.93;;
35646;SDS011;28680;45.642;13.756;2023-03-01T02:49:32;16.33;;;9.88;;
35646;SDS011;28680;45.642;13.756;2023-03-01T02:55:02;16.60;;;9.98;;
35646;SDS011;28680;45.642;13.756;2023-03-01T02:57:34;16.67;;;10.65;;
35646;SDS011;28680;45.642;13.756;2023-03-01T03:00:05;19.35;;;10.20;;
35646;SDS011;28680;45.642;13.756;2023-03-01T03:02:45;13.48;;;7.97;;
35646;SDS011;28680;45.642;13.756;2023-03-01T03:05:17;17.98;;;10.25;;
35646;SDS011;28680;45.642;13.756;2023-03-01T03:07:48;13.20;;;7.78;;
35646;SDS011;28680;45.642;13.756;2023-03-01T03:10:19;15.07;;;9.07;;
35646;SDS011;28680;45.642;13.756;2023-03-01T03:12:54;14.82;;;9.02;;
35646;SDS011;28680;45.642;13.756;2023-03-01T03:15:25;17.73;;;8.82;;
35646;SDS011;28680;45.642;13.756;2023-03-01T03:17:52;16.83;;;9.30;;
35646;SDS011;28680;45.642;13.756;2023-03-01T03:20:20;15.85;;;9.57;;
35646;SDS011;28680;45.642;13.756;2023-03-01T03:22:51;17.65;;;11.10;;
35646;SDS011;28680;45.642;13.756;2023-03-01T03:25:19;16.63;;;9.50;;
35646;SDS011;28680;45.642;13.756;2023-03-01T03:27:47;13.30;;;7.90;;
35646;SDS011;28680;45.642;13.756;2023-03-01T03:30:21;16.25;;;9.40;;
35646;SDS011;28680;45.642;13.756;2023-03-01T03:32:53;18.65;;;10.90;;
35646;SDS011;28680;45.642;13.756;2023-03-01T03:35:27;14.43;;;8.82;;
35646;SDS011;28680;45.642;13.756;2023-03-01T03:37:56;20.55;;;10.80;;
35646;SDS011;28680;45.642;13.756;2023-03-01T03:43:03;16.42;;;9.18;;
35646;SDS011;28680;45.642;13.756;2023-03-01T03:45:33;17.65;;;10.35;;
35646;SDS011;28680;45.642;13.756;2023-03-01T03:48:00;14.23;;;8.25;;
35646;SDS011;28680;45.642;13.756;2023-03-01T03:50:29;16.92;;;9.65;;
35646;SDS011;28680;45.642;13.756;2023-03-01T03:52:55;17.10;;;9.52;;
35646;SDS011;28680;45.642;13.756;2023-03-01T03:55:21;10.70;;;6.07;;
35646;SDS011;28680;45.642;13.756;2023-03-01T03:57:47;14.40;;;9.45;;
35646;SDS011;28680;45.642;13.756;2023-03-01T04:00:19;19.08;;;10.77;;
35646;SDS011;28680;45.642;13.756;2023-03-01T04:02:48;17.40;;;10.95;;
35646;SDS011;28680;45.642;13.756;2023-03-01T04:05:16;18.92;;;10.07;;
35646;SDS011;28680;45.642;13.756;2023-03-01T04:07:43;11.73;;;7.00;;
35646;SDS011;28680;45.642;13.756;2023-03-01T04:10:12;18.10;;;10.85;;
35646;SDS011;28680;45.642;13.756;2023-03-01T04:12:41;16.58;;;9.93;;
35646;SDS011;28680;45.642;13.756;2023-03-01T04:15:08;17.75;;;10.00;;
35646;SDS011;28680;45.642;13.756;2023-03-01T04:17:43;18.30;;;11.07;;
35646;SDS011;28680;45.642;13.756;2023-03-01T04:20:12;12.52;;;8.40;;
35646;SDS011;28680;45.642;13.756;2023-03-01T04:22:49;18.35;;;10.57;;
35646;SDS011;28680;45.642;13.756;2023-03-01T04:25:17;13.00;;;8.05;;
35646;SDS011;28680;45.642;13.756;2023-03-01T04:27:43;14.18;;;9.68;;
35646;SDS011;28680;45.642;13.756;2023-03-01T04:30:09;16.65;;;10.63;;
35646;SDS011;28680;45.642;13.756;2023-03-01T04:32:36;13.07;;;7.82;;
35646;SDS011;28680;45.642;13.756;2023-03-01T04:35:02;15.60;;;9.10;;
35646;SDS011;28680;45.642;13.756;2023-03-01T04:37:28;15.73;;;9.82;;
35646;SDS011;28680;45.642;13.756;2023-03-01T04:39:54;16.15;;;9.45;;
35646;SDS011;28680;45.642;13.756;2023-03-01T04:42:20;17.92;;;9.98;;
35646;SDS011;28680;45.642;13.756;2023-03-01T04:44:46;12.38;;;8.77;;
35646;SDS011;28680;45.642;13.756;2023-03-01T04:47:12;14.75;;;8.32;;
35646;SDS011;28680;45.642;13.756;2023-03-01T04:49:38;16.05;;;9.77;;
35646;SDS011;28680;45.642;13.756;2023-03-01T04:52:04;15.10;;;8.52;;
35646;SDS011;28680;45.642;13.756;2023-03-01T04:54:31;12.68;;;7.90;;
35646;SDS011;28680;45.642;13.756;2023-03-01T04:56:58;21.83;;;10.20;;
35646;SDS011;28680;45.642;13.756;2023-03-01T04:59:24;14.18;;;8.38;;
35646;SDS011;28680;45.642;13.756;2023-03-01T05:23:32;15.25;;;9.40;;
35646;SDS011;28680;45.642;13.756;2023-03-01T05:25:59;13.68;;;8.27;;
35646;SDS011;28680;45.642;13.756;2023-03-01T05:28:30;16.58;;;10.30;;
35646;SDS011;28680;45.642;13.756;2023-03-01T05:30:56;17.75;;;10.55;;
35646;SDS011;28680;45.642;13.756;2023-03-01T05:33:24;13.07;;;7.80;;
35646;SDS011;28680;45.642;13.756;2023-03-01T05:35:50;14.77;;;9.07;;
35646;SDS011;28680;45.642;13.756;2023-03-01T05:38:17;12.00;;;7.63;;
35646;SDS011;28680;45.642;13.756;2023-03-01T05:40:47;14.68;;;8.25;;
35646;SDS011;28680;45.642;13.756;2023-03-01T05:43:14;15.95;;;9.60;;
35646;SDS011;28680;45.642;13.756;2023-03-01T05:45:42;18.13;;;10.20;;
35646;SDS011;28680;45.642;13.756;2023-03-01T05:48:09;14.15;;;8.75;;
35646;SDS011;28680;45.642;13.756;2023-03-01T05:50:37;14.30;;;8.73;;
35646;SDS011;28680;45.642;13.756;2023-03-01T05:53:07;13.40;;;8.20;;
35646;SDS011;28680;45.642;13.756;2023-03-01T05:55:37;17.17;;;9.77;;
35646;SDS011;28680;45.642;13.756;2023-03-01T05:58:06;17.02;;;10.20;;
35646;SDS011;28680;45.642;13.756;2023-03-01T06:00:34;14.70;;;9.35;;
35646;SDS011;28680;45.642;13.756;2023-03-01T06:03:01;14.82;;;9.95;;
35646;SDS011;28680;45.642;13.756;2023-03-01T06:05:27;17.98;;;10.15;;
35646;SDS011;28680;45.642;13.756;2023-03-01T06:07:53;12.43;;;7.45;;
35646;SDS011;28680;45.642;13.756;2023-03-01T06:10:20;16.83;;;9.68;;
35646;SDS011;28680;45.642;13.756;2023-03-01T06:12:47;16.23;;;10.10;;
35646;SDS011;28680;45.642;13.756;2023-03-01T06:15:14;14.98;;;9.00;;
35646;SDS011;28680;45.642;13.756;2023-03-01T06:17:42;18.40;;;10.35;;
35646;SDS011;28680;45.642;13.756;2023-03-01T06:20:28;18.77;;;10.50;;
35646;SDS011;28680;45.642;13.756;2023-03-01T06:22:54;15.32;;;8.15;;
35646;SDS011;28680;45.642;13.756;2023-03-01T06:25:22;13.60;;;9.02;;
35646;SDS011;28680;45.642;13.756;2023-03-01T06:27:50;18.42;;;9.85;;
35646;SDS011;28680;45.642;13.756;2023-03-01T06:30:18;16.80;;;7.72;;
35646;SDS011;28680;45.642;13.756;2023-03-01T06:32:46;15.82;;;9.38;;
35646;SDS011;28680;45.642;13.756;2023-03-01T06:35:14;15.85;;;9.90;;
35646;SDS011;28680;45.642;13.756;2023-03-01T06:37:44;15.90;;;8.98;;
35646;SDS011;28680;45.642;13.756;2023-03-01T06:40:11;18.60;;;10.82;;
35646;SDS011;28680;45.642;13.756;2023-03-01T06:42:39;16.63;;;10.30;;
35646;SDS011;28680;45.642;13.756;2023-03-01T06:45:07;18.70;;;10.45;;
35646;SDS011;28680;45.642;13.756;2023-03-01T06:47:34;17.73;;;10.35;;
35646;SDS011;28680;45.642;13.756;2023-03-01T06:50:00;17.67;;;10.45;;
35646;SDS011;28680;45.642;13.756;2023-03-01T06:52:27;13.65;;;8.40;;
35646;SDS011;28680;45.642;13.756;2023-03-01T06:54:54;18.33;;;11.40;;
35646;SDS011;28680;45.642;13.756;2023-03-01T06:57:20;18.98;;;11.55;;
35646;SDS011;28680;45.642;13.756;2023-03-01T06:59:47;17.92;;;11.13;;
35646;SDS011;28680;45.642;13.756;2023-03-01T07:02:13;16.45;;;9.25;;
35646;SDS011;28680;45.642;13.756;2023-03-01T07:04:40;15.00;;;9.50;;
35646;SDS011;28680;45.642;13.756;2023-03-01T07:07:07;18.75;;;11.00;;
35646;SDS011;28680;45.642;13.756;2023-03-01T07:09:33;23.38;;;11.27;;
35646;SDS011;28680;45.642;13.756;2023-03-01T07:11:59;19.20;;;10.07;;
35646;SDS011;28680;45.642;13.756;2023-03-01T07:14:25;20.75;;;11.43;;
35646;SDS011;28680;45.642;13.756;2023-03-01T07:16:54;16.15;;;8.63;;
35646;SDS011;28680;45.642;13.756;2023-03-01T07:19:20;16.15;;;9.48;;
35646;SDS011;28680;45.642;13.756;2023-03-01T07:21:47;17.75;;;7.32;;
35646;SDS011;28680;45.642;13.756;2023-03-01T07:24:13;12.27;;;7.63;;
35646;SDS011;28680;45.642;13.756;2023-03-01T07:26:39;17.02;;;10.27;;
35646;SDS011;28680;45.642;13.756;2023-03-01T07:29:06;13.10;;;7.43;;
35646;SDS011;28680;45.642;13.756;2023-03-01T07:31:33;18.13;;;10.75;;
35646;SDS011;28680;45.642;13.756;2023-03-01T07:33:59;14.57;;;8.73;;
35646;SDS011;28680;45.642;13.756;2023-03-01T07:36:25;10.20;;;6.53;;
35646;SDS011;28680;45.642;13.756;2023-03-01T07:38:51;18.40;;;10.50;;
35646;SDS011;28680;45.642;13.756;2023-03-01T07:41:17;15.15;;;9.25;;
35646;SDS011;28680;45.642;13.756;2023-03-01T07:43:43;24.20;;;11.30;;
35646;SDS011;28680;45.642;13.756;2023-03-01T07:46:09;16.60;;;9.13;;
35646;SDS011;28680;45.642;13.756;2023-03-01T07:48:35;15.23;;;9.82;;
35646;SDS011;28680;45.642;13.756;2023-03-01T07:51:01;15.13;;;8.18;;
35646;SDS011;28680;45.642;13.756;2023-03-01T07:53:33;18.23;;;10.57;;
35646;SDS011;28680;45.642;13.756;2023-03-01T07:56:00;16.60;;;9.57;;
35646;SDS011;28680;45.642;13.756;2023-03-01T07:58:30;15.95;;;8.85;;
35646;SDS011;28680;45.642;13.756;2023-03-01T08:00:56;15.35;;;9.15;;
35646;SDS011;28680;45.642;13.756;2023-03-01T08:03:27;10.48;;;6.55;;
35646;SDS011;28680;45.642;13.756;2023-03-01T08:05:52;18.48;;;10.38;;
35646;SDS011;28680;45.642;13.756;2023-03-01T08:08:18;16.63;;;8.30;;
35646;SDS011;28680;45.642;13.756;2023-03-01T08:10:44;17.55;;;9.70;;
35646;SDS011;28680;45.642;13.756;2023-03-01T08:13:10;17.17;;;10.90;;
35646;SDS011;28680;45.642;13.756;2023-03-01T08:15:36;15.00;;;9.68;;
35646;SDS011;28680;45.642;13.756;2023-03-01T08:18:01;17.95;;;10.93;;
35646;SDS011;28680;45.642;13.756;2023-03-01T08:20:27;12.05;;;7.20;;
35646;SDS011;28680;45.642;13.756;2023-03-01T08:22:53;15.70;;;9.43;;
35646;SDS011;28680;45.642;13.756;2023-03-01T08:25:19;18.90;;;11.10;;
35646;SDS011;28680;45.642;13.756;2023-03-01T08:27:45;18.23;;;10.60;;
35646;SDS011;28680;45.642;13.756;2023-03-01T08:30:11;17.13;;;9.77;;
35646;SDS011;28680;45.642;13.756;2023-03-01T08:32:38;10.82;;;6.55;;
35646;SDS011;28680;45.642;13.756;2023-03-01T08:35:05;11.90;;;7.53;;
35646;SDS011;28680;45.642;13.756;2023-03-01T08:37:31;19.70;;;9.77;;
35646;SDS011;28680;45.642;13.756;2023-03-01T08:39:57;17.85;;;10.13;;
35646;SDS011;28680;45.642;13.756;2023-03-01T08:42:25;16.40;;;8.63;;
35646;SDS011;28680;45.642;13.756;2023-03-01T08:44:51;15.35;;;9.13;;
35646;SDS011;28680;45.642;13.756;2023-03-01T08:47:17;15.95;;;9.20;;
35646;SDS011;28680;45.642;13.756;2023-03-01T08:49:43;15.02;;;7.53;;
35646;SDS011;28680;45.642;13.756;2023-03-01T08:52:09;11.95;;;7.93;;
35646;SDS011;28680;45.642;13.756;2023-03-01T08:54:34;20.17;;;8.82;;
35646;SDS011;28680;45.642;13.756;2023-03-01T08:57:02;9.85;;;5.97;;
35646;SDS011;28680;45.642;13.756;2023-03-01T08:59:28;11.93;;;7.57;;
35646;SDS011;28680;45.642;13.756;2023-03-01T09:01:55;10.52;;;5.07;;
35646;SDS011;28680;45.642;13.756;2023-03-01T09:04:21;11.05;;;7.13;;
35646;SDS011;28680;45.642;13.756;2023-03-01T09:06:47;11.73;;;6.38;;
35646;SDS011;28680;45.642;13.756;2023-03-01T09:09:14;11.98;;;6.97;;
35646;SDS011;28680;45.642;13.756;2023-03-01T09:11:42;10.00;;;6.13;;
35646;SDS011;28680;45.642;13.756;2023-03-01T09:15:12;11.45;;;6.35;;
35646;SDS011;28680;45.642;13.756;2023-03-01T09:17:50;9.10;;;6.35;;
35646;SDS011;28680;45.642;13.756;2023-03-01T09:20:16;11.52;;;6.65;;
35646;SDS011;28680;45.642;13.756;2023-03-01T09:22:42;10.25;;;5.80;;
35646;SDS011;28680;45.642;13.756;2023-03-01T09:25:08;7.93;;;5.03;;
35646;SDS011;28680;45.642;13.756;2023-03-01T09:27:34;8.82;;;5.15;;
35646;SDS011;28680;45.642;13.756;2023-03-01T09:30:00;7.97;;;5.03;;
35646;SDS011;28680;45.642;13.756;2023-03-01T09:32:28;9.85;;;5.28;;
35646;SDS011;28680;45.642;13.756;2023-03-01T09:34:56;10.80;;;4.43;;
35646;SDS011;28680;45.642;13.756;2023-03-01T09:37:32;8.75;;;5.60;;
35646;SDS011;28680;45.642;13.756;2023-03-01T09:40:00;8.52;;;5.07;;
35646;SDS011;28680;45.642;13.756;2023-03-01T09:42:29;10.35;;;4.70;;
35646;SDS011;28680;45.642;13.756;2023-03-01T09:45:03;11.60;;;6.03;;
35646;SDS011;28680;45.642;13.756;2023-03-01T09:47:36;11.80;;;5.97;;
35646;SDS011;28680;45.642;13.756;2023-03-01T09:50:10;10.00;;;5.10;;
35646;SDS011;28680;45.642;13.756;2023-03-01T09:53:01;9.90;;;5.75;;
35646;SDS011;28680;45.642;13.756;2023-03-01T10:01:23;12.48;;;6.53;;
35646;SDS011;28680;45.642;13.756;2023-03-01T10:07:17;13.27;;;6.25;;
35646;SDS011;28680;45.642;13.756;2023-03-01T10:09:47;10.88;;;6.55;;
35646;SDS011;28680;45.642;13.756;2023-03-01T10:12:20;9.23;;;5.15;;
35646;SDS011;28680;45.642;13.756;2023-03-01T10:17:37;12.35;;;7.15;;
35646;SDS011;28680;45.642;13.756;2023-03-01T10:23:41;11.38;;;5.65;;
35646;SDS011;28680;45.642;13.756;2023-03-01T10:31:48;10.07;;;5.43;;
35646;SDS011;28680;45.642;13.756;2023-03-01T10:34:17;13.35;;;6.35;;
35646;SDS011;28680;45.642;13.756;2023-03-01T10:36:56;9.90;;;7.00;;
35646;SDS011;28680;45.642;13.756;2023-03-01T10:39:33;11.68;;;7.05;;
35646;SDS011;28680;45.642;13.756;2023-03-01T10:42:00;11.68;;;6.25;;
35646;SDS011;28680;45.642;13.756;2023-03-01T10:45:02;10.05;;;6.47;;
35646;SDS011;28680;45.642;13.756;2023-03-01T10:47:25;11.57;;;5.97;;
35646;SDS011;28680;45.642;13.756;2023-03-01T10:52:33;11.13;;;6.60;;
35646;SDS011;28680;45.642;13.756;2023-03-01T10:55:23;11.60;;;5.80;;
35646;SDS011;28680;45.642;13.756;2023-03-01T11:00:53;7.93;;;4.93;;
35646;SDS011;28680;45.642;13.756;2023-03-01T11:03:32;10.15;;;4.53;;
35646;SDS011;28680;45.642;13.756;2023-03-01T11:11:25;8.02;;;5.15;;
35646;SDS011;28680;45.642;13.756;2023-03-01T11:14:04;7.15;;;4.97;;
35646;SDS011;28680;45.642;13.756;2023-03-01T11:16:41;9.77;;;4.97;;
35646;SDS011;28680;45.642;13.756;2023-03-01T11:21:41;7.68;;;5.10;;
35646;SDS011;28680;45.642;13.756;2023-03-01T11:24:11;7.70;;;4.60;;
35646;SDS011;28680;45.642;13.756;2023-03-01T11:26:40;6.88;;;4.30;;
35646;SDS011;28680;45.642;13.756;2023-03-01T11:29:30;6.70;;;4.82;;
35646;SDS011;28680;45.642;13.756;2023-03-01T11:32:07;7.43;;;4.60;;
35646;SDS011;28680;45.642;13.756;2023-03-01T11:34:38;5.70;;;4.40;;
35646;SDS011;28680;45.642;13.756;2023-03-01T11:37:28;6.93;;;3.80;;
35646;SDS011;28680;45.642;13.756;2023-03-01T11:41:00;6.65;;;4.57;;
35646;SDS011;28680;45.642;13.756;2023-03-01T11:43:58;6.03;;;4.30;;
35646;SDS011;28680;45.642;13.756;2023-03-01T11:47:00;6.65;;;3.63;;
35646;SDS011;28680;45.642;13.756;2023-03-01T11:55:36;5.97;;;3.95;;
35646;SDS011;28680;45.642;13.756;2023-03-01T12:13:11;5.35;;;3.33;;
35646;SDS011;28680;45.642;13.756;2023-03-01T12:21:30;4.75;;;3.30;;
35646;SDS011;28680;45.642;13.756;2023-03-01T12:24:14;3.92;;;2.58;;
35646;SDS011;28680;45.642;13.756;2023-03-01T12:36:15;4.10;;;2.17;;
35646;SDS011;28680;45.642;13.756;2023-03-01T12:45:24;7.68;;;3.00;;
35646;SDS011;28680;45.642;13.756;2023-03-01T12:48:18;4.10;;;2.30;;
35646;SDS011;28680;45.642;13.756;2023-03-01T12:51:03;4.13;;;2.78;;
35646;SDS011;28680;45.642;13.756;2023-03-01T12:53:47;5.80;;;3.30;;
35646;SDS011;28680;45.642;13.756;2023-03-01T12:56:19;4.90;;;3.10;;
35646;SDS011;28680;45.642;13.756;2023-03-01T13:04:54;16.50;;;3.58;;
35646;SDS011;28680;45.642;13.756;2023-03-01T13:13:21;3.85;;;2.95;;
35646;SDS011;28680;45.642;13.756;2023-03-01T13:15:50;4.97;;;2.30;;
35646;SDS011;28680;45.642;13.756;2023-03-01T14:14:15;3.25;;;2.30;;
35646;SDS011;28680;45.642;13.756;2023-03-01T14:17:41;2.78;;;2.20;;
35646;SDS011;28680;45.642;13.756;2023-03-01T14:20:23;2.83;;;2.10;;
35646;SDS011;28680;45.642;13.756;2023-03-01T14:22:54;5.32;;;2.97;;
35646;SDS011;28680;45.642;13.756;2023-03-01T14:31:38;2.25;;;1.70;;
35646;SDS011;28680;45.642;13.756;2023-03-01T14:34:04;2.40;;;1.70;;
35646;SDS011;28680;45.642;13.756;2023-03-01T14:36:32;3.47;;;1.88;;
35646;SDS011;28680;45.642;13.756;2023-03-01T14:38:59;3.15;;;1.90;;
35646;SDS011;28680;45.642;13.756;2023-03-01T14:41:31;2.75;;;1.65;;
35646;SDS011;28680;45.642;13.756;2023-03-01T14:44:02;3.38;;;1.88;;
35646;SDS011;28680;45.642;13.756;2023-03-01T14:46:34;2.25;;;1.65;;
35646;SDS011;28680;45.642;13.756;2023-03-01T14:49:06;2.35;;;1.80;;
35646;SDS011;28680;45.642;13.756;2023-03-01T14:51:39;3.20;;;2.13;;
35646;SDS011;28680;45.642;13.756;2023-03-01T14:54:39;2.88;;;1.77;;
35646;SDS011;28680;45.642;13.756;2023-03-01T14:57:14;2.35;;;1.80;;
35646;SDS011;28680;45.642;13.756;2023-03-01T14:59:48;2.67;;;1.88;;
35646;SDS011;28680;45.642;13.756;2023-03-01T15:02:19;2.45;;;1.95;;
35646;SDS011;28680;45.642;13.756;2023-03-01T15:04:49;2.88;;;1.70;;
35646;SDS011;28680;45.642;13.756;2023-03-01T15:07:19;1.80;;;1.40;;
35646;SDS011;28680;45.642;13.756;2023-03-01T15:09:45;2.15;;;1.30;;
35646;SDS011;28680;45.642;13.756;2023-03-01T15:12:25;1.95;;;1.52;;
35646;SDS011;28680;45.642;13.756;2023-03-01T15:15:29;2.28;;;1.45;;
35646;SDS011;28680;45.642;13.756;2023-03-01T15:17:59;3.40;;;1.55;;
35646;SDS011;28680;45.642;13.756;2023-03-01T15:20:38;2.10;;;1.52;;
35646;SDS011;28680;45.642;13.756;2023-03-01T15:23:04;3.22;;;1.50;;
35646;SDS011;28680;45.642;13.756;2023-03-01T15:25:31;1.38;;;1.10;;
35646;SDS011;28680;45.642;13.756;2023-03-01T15:27:58;1.17;;;1.08;;
35646;SDS011;28680;45.642;13.756;2023-03-01T15:30:33;1.48;;;1.10;;
35646;SDS011;28680;45.642;13.756;2023-03-01T15:35:59;1.80;;;1.10;;
35646;SDS011;28680;45.642;13.756;2023-03-01T15:40:57;1.50;;;1.30;;
35646;SDS011;28680;45.642;13.756;2023-03-01T15:46:38;2.00;;;1.55;;
35646;SDS011;28680;45.642;13.756;2023-03-01T15:49:05;1.17;;;0.90;;
35646;SDS011;28680;45.642;13.756;2023-03-01T15:52:11;1.00;;;0.88;;
35646;SDS011;28680;45.642;13.756;2023-03-01T15:57:45;1.08;;;0.85;;
35646;SDS011;28680;45.642;13.756;2023-03-01T16:00:12;1.77;;;0.90;;
35646;SDS011;28680;45.642;13.756;2023-03-01T16:02:41;1.25;;;1.10;;
35646;SDS011;28680;45.642;13.756;2023-03-01T16:05:12;1.90;;;0.90;;
35646;SDS011;28680;45.642;13.756;2023-03-01T16:07:45;1.10;;;0.80;;
35646;SDS011;28680;45.642;13.756;2023-03-01T16:10:11;1.08;;;0.82;;
35646;SDS011;28680;45.642;13.756;2023-03-01T16:12:38;1.02;;;0.82;;
35646;SDS011;28680;45.642;13.756;2023-03-01T16:15:04;1.27;;;0.90;;
35646;SDS011;28680;45.642;13.756;2023-03-01T16:17:54;0.93;;;0.77;;
35646;SDS011;28680;45.642;13.756;2023-03-01T16:20:22;0.95;;;0.82;;
35646;SDS011;28680;45.642;13.756;2023-03-01T16:22:48;1.15;;;0.65;;
35646;SDS011;28680;45.642;13.756;2023-03-01T16:25:14;0.85;;;0.82;;
35646;SDS011;28680;45.642;13.756;2023-03-01T16:27:44;1.38;;;0.98;;
35646;SDS011;28680;45.642;13.756;2023-03-01T16:30:12;0.73;;;0.60;;
35646;SDS011;28680;45.642;13.756;2023-03-01T16:32:40;0.70;;;0.57;;
35646;SDS011;28680;45.642;13.756;2023-03-01T16:35:08;0.80;;;0.70;;
35646;SDS011;28680;45.642;13.756;2023-03-01T16:37:40;0.63;;;0.60;;
35646;SDS011;28680;45.642;13.756;2023-03-01T16:40:10;1.25;;;0.73;;
35646;SDS011;28680;45.642;13.756;2023-03-01T16:42:44;0.95;;;0.80;;
35646;SDS011;28680;45.642;13.756;2023-03-01T16:45:10;0.80;;;0.80;;
35646;SDS011;28680;45.642;13.756;2023-03-01T16:47:38;0.75;;;0.70;;
35646;SDS011;28680;45.642;13.756;2023-03-01T16:50:04;3.00;;;0.68;;
35646;SDS011;28680;45.642;13.756;2023-03-01T16:52:30;5.32;;;3.08;;
35646;SDS011;28680;45.642;13.756;2023-03-01T16:54:58;1.02;;;0.52;;
35646;SDS011;28680;45.642;13.756;2023-03-01T16:57:24;1.38;;;1.00;;
35646;SDS011;28680;45.642;13.756;2023-03-01T16:59:53;1.10;;;0.60;;
35646;SDS011;28680;45.642;13.756;2023-03-01T17:02:19;1.10;;;0.60;;
35646;SDS011;28680;45.642;13.756;2023-03-01T17:04:50;1.50;;;0.68;;
35646;SDS011;28680;45.642;13.756;2023-03-01T17:07:18;0.95;;;0.60;;
35646;SDS011;28680;45.642;13.756;2023-03-01T17:09:44;1.92;;;0.90;;
35646;SDS011;28680;45.642;13.756;2023-03-01T17:12:12;0.77;;;0.60;;
35646;SDS011;28680;45.642;13.756;2023-03-01T17:14:39;1.52;;;0.80;;
35646;SDS011;28680;45.642;13.756;2023-03-01T17:17:07;0.82;;;0.60;;
35646;SDS011;28680;45.642;13.756;2023-03-01T17:19:34;0.90;;;0.70;;
35646;SDS011;28680;45.642;13.756;2023-03-01T17:22:04;0.82;;;0.73;;
35646;SDS011;28680;45.642;13.756;2023-03-01T17:24:35;1.10;;;0.80;;
35646;SDS011;28680;45.642;13.756;2023-03-01T17:27:04;0.52;;;0.50;;
35646;SDS011;28680;45.642;13.756;2023-03-01T17:29:30;1.88;;;0.50;;
35646;SDS011;28680;45.642;13.756;2023-03-01T17:31:56;1.10;;;0.60;;
35646;SDS011;28680;45.642;13.756;2023-03-01T17:34:22;1.05;;;0.60;;
35646;SDS011;28680;45.642;13.756;2023-03-01T17:36:49;1.13;;;0.70;;
35646;SDS011;28680;45.642;13.756;2023-03-01T17:39:17;0.80;;;0.60;;
35646;SDS011;28680;45.642;13.756;2023-03-01T17:41:50;0.88;;;0.70;;
35646;SDS011;28680;45.642;13.756;2023-03-01T17:44:17;0.75;;;0.60;;
35646;SDS011;28680;45.642;13.756;2023-03-01T17:46:42;0.55;;;0.55;;
35646;SDS011;28680;45.642;13.756;2023-03-01T17:49:08;0.77;;;0.60;;
35646;SDS011;28680;45.642;13.756;2023-03-01T17:51:36;0.75;;;0.55;;
35646;SDS011;28680;45.642;13.756;2023-03-01T17:54:02;1.23;;;0.82;;
35646;SDS011;28680;45.642;13.756;2023-03-01T17:56:28;1.90;;;0.52;;
35646;SDS011;28680;45.642;13.756;2023-03-01T17:58:56;1.27;;;0.55;;
35646;SDS011;28680;45.642;13.756;2023-03-01T18:01:22;0.50;;;0.50;;